Time;durP1;ratioP1;P1;durP2;ratioP2;P2;SDS_P1;SDS_P2;PMS_P1;PMS_P2;Temp;Humidity;BMP_temperature;BMP_pressure;BME280_temperature;BME280_humidity;BME280_pressure;Samples;Min_cycle;Max_cycle;Signal;HPM_P1;HPM_P2
2022/06/20 00:00:17;;;;;;;14.75;10.38;;;;;;;23.15;69.25;95497.19;4877306;29;20516;-78
2022/06/20 00:02:47;;;;;;;21.75;10.32;;;;;;;23.11;68.54;95499.25;4877851;29;20052;-78
2022/06/20 00:05:16;;;;;;;22.50;10.82;;;;;;;22.99;67.42;95505.38;4877176;29;20057;-78
2022/06/20 00:07:42;;;;;;;20.02;10.52;;;;;;;22.98;67.46;95509.38;4877921;29;20394;-77
2022/06/20 00:10:11;;;;;;;19.67;9.80;;;;;;;23.01;67.05;95522.41;4878702;29;20059;-78
2022/06/20 00:12:39;;;;;;;21.85;11.70;;;;;;;22.71;68.58;95514.06;4877912;29;20049;-77
2022/06/20 00:15:08;;;;;;;24.95;11.70;;;;;;;22.57;69.00;95513.06;4877103;29;20186;-78
2022/06/20 00:17:34;;;;;;;21.13;11.45;;;;;;;22.46;69.62;95512.44;4877638;29;20105;-77
2022/06/20 00:20:01;;;;;;;15.73;10.45;;;;;;;22.60;69.02;95500.34;4877536;29;20128;-77
2022/06/20 00:22:28;;;;;;;20.67;11.63;;;;;;;22.59;69.14;95504.31;4877315;29;20497;-78
2022/06/20 00:24:55;;;;;;;18.08;10.45;;;;;;;22.69;68.89;95497.06;4877321;29;20060;-77
2022/06/20 00:27:21;;;;;;;17.85;10.98;;;;;;;22.75;69.82;95500.94;4876311;29;20126;-78
2022/06/20 00:29:49;;;;;;;19.27;9.75;;;;;;;22.76;69.13;95502.50;4875897;29;20053;-77
2022/06/20 00:32:16;;;;;;;17.45;9.95;;;;;;;22.77;69.37;95509.66;4876060;29;20218;-77
2022/06/20 00:34:42;;;;;;;18.27;10.23;;;;;;;22.79;69.98;95502.47;4877168;29;20509;-77
2022/06/20 00:37:17;;;;;;;19.83;10.18;;;;;;;22.79;70.47;95504.47;4876798;29;20430;-77
2022/06/20 00:39:44;;;;;;;18.23;10.35;;;;;;;22.77;70.55;95504.09;4877272;29;20135;-78
2022/06/20 00:42:11;;;;;;;14.95;9.73;;;;;;;22.74;70.96;95507.69;4876651;29;20048;-77
2022/06/20 00:44:42;;;;;;;17.27;10.07;;;;;;;22.71;70.53;95514.88;4877195;29;20044;-78
2022/06/20 00:47:13;;;;;;;15.10;10.32;;;;;;;22.66;71.22;95505.03;4876724;29;20061;-77
2022/06/20 00:49:46;;;;;;;16.77;10.07;;;;;;;22.61;70.63;95508.28;4877185;29;20063;-78
2022/06/20 00:52:17;;;;;;;18.83;10.57;;;;;;;22.56;70.64;95511.50;4876558;29;20041;-78
2022/06/20 00:54:49;;;;;;;14.52;9.65;;;;;;;22.52;71.32;95505.22;4876783;29;20053;-78
2022/06/20 00:57:21;;;;;;;17.02;9.25;;;;;;;22.44;71.10;95498.16;4876525;29;20501;-77
2022/06/20 00:59:54;;;;;;;17.67;10.20;;;;;;;22.40;71.62;95503.00;4876880;29;20059;-77
2022/06/20 01:02:26;;;;;;;14.00;9.65;;;;;;;22.35;71.10;95497.91;4876329;29;22766;-78
2022/06/20 01:04:57;;;;;;;20.40;10.05;;;;;;;22.28;71.36;95496.00;4876929;29;20053;-78
2022/06/20 01:07:27;;;;;;;16.25;10.23;;;;;;;22.26;72.48;95497.63;4876173;29;20052;-78
2022/06/20 01:09:57;;;;;;;16.70;9.68;;;;;;;22.22;71.85;95496.88;4878240;29;20045;-78
2022/06/20 01:12:27;;;;;;;16.75;9.93;;;;;;;22.16;71.63;95499.31;4876216;29;20049;-78
2022/06/20 01:14:54;;;;;;;15.63;9.88;;;;;;;22.14;71.39;95510.81;4876727;29;20060;-77
2022/06/20 01:17:30;;;;;;;14.88;9.10;;;;;;;22.09;71.69;95500.16;4876161;29;20428;-78
2022/06/20 01:20:01;;;;;;;14.93;8.85;;;;;;;22.08;71.33;95503.31;4876690;29;20053;-78
2022/06/20 01:22:38;;;;;;;14.27;9.30;;;;;;;22.07;71.99;95497.00;4876303;29;20045;-77
2022/06/20 01:25:33;;;;;;;17.38;9.93;;;;;;;22.10;71.55;95490.66;4876124;29;20172;-78
2022/06/20 01:28:02;;;;;;;21.48;10.95;;;;;;;22.01;70.88;95498.66;4876541;29;20429;-78
2022/06/20 01:30:35;;;;;;;20.02;11.02;;;;;;;21.94;70.49;95493.19;4876119;29;20052;-77
2022/06/20 01:33:02;;;;;;;18.13;10.98;;;;;;;21.94;70.75;95484.88;4876120;29;20045;-76
2022/06/20 01:38:14;;;;;;;16.13;9.60;;;;;;;21.99;71.19;95484.44;4875496;29;20093;-78
2022/06/20 01:42:18;;;;;;;21.58;10.65;;;;;;;21.99;71.79;95484.44;4877513;29;20045;-78
2022/06/20 01:43:33;;;;;;;23.52;11.23;;;;;;;22.01;71.53;95493.09;4875801;29;20049;-78
2022/06/20 01:46:00;;;;;;;19.20;10.13;;;;;;;21.96;70.54;95498.31;4876169;29;20069;-78
2022/06/20 01:48:31;;;;;;;22.05;10.20;;;;;;;21.97;70.07;95486.81;4875912;29;20057;-77
2022/06/20 01:50:58;;;;;;;14.82;10.23;;;;;;;22.00;70.67;95497.09;4876367;29;20045;-78
2022/06/20 01:53:33;;;;;;;17.88;10.07;;;;;;;22.03;70.66;95487.16;4875726;29;20569;-78
2022/06/20 01:56:02;;;;;;;16.35;9.63;;;;;;;22.04;70.93;95497.06;4869520;29;20064;-78
2022/06/20 01:58:35;;;;;;;18.95;9.98;;;;;;;22.00;71.09;95497.09;4875818;29;20048;-77
2022/06/20 02:01:03;;;;;;;17.45;9.50;;;;;;;21.98;70.96;95493.94;4875697;29;20048;-77
2022/06/20 02:03:34;;;;;;;17.08;9.73;;;;;;;22.00;71.14;95507.41;4875963;29;20049;-77
2022/06/20 02:06:02;;;;;;;17.02;11.05;;;;;;;21.93;71.12;95497.19;4875849;29;20049;-78
2022/06/20 02:08:28;;;;;;;14.63;9.15;;;;;;;21.94;71.60;95497.97;4872379;29;20132;-77
2022/06/20 02:11:02;;;;;;;19.90;10.45;;;;;;;21.88;71.88;95494.84;4876111;29;20057;-78
2022/06/20 02:13:30;;;;;;;23.13;11.40;;;;;;;21.84;71.44;95496.88;4875764;29;20442;-78
2022/06/20 02:16:03;;;;;;;15.77;10.27;;;;;;;21.85;71.87;95493.69;4875900;29;20076;-77
2022/06/20 02:18:31;;;;;;;;;;;;;;;21.89;72.53;95497.22;4876122;29;20056;-78
2022/06/20 02:21:01;;;;;;;16.02;9.73;;;;;;;21.85;71.62;95495.66;4875891;29;19924;-78
2022/06/20 02:23:33;;;;;;;14.68;10.02;;;;;;;21.83;70.82;95495.31;4875827;29;20044;-78
2022/06/20 02:26:02;;;;;;;23.30;10.95;;;;;;;21.71;70.78;95490.25;4875704;29;20067;-77
2022/06/20 02:28:36;;;;;;;18.95;10.50;;;;;;;21.75;70.52;95497.34;4875446;29;20045;-78
2022/06/20 02:31:07;;;;;;;14.93;10.05;;;;;;;21.81;71.34;95489.38;4875522;29;20049;-77
2022/06/20 02:33:34;;;;;;;16.42;10.10;;;;;;;21.81;71.05;95497.69;4875964;29;20048;-78
2022/06/20 02:36:06;;;;;;;16.92;9.93;;;;;;;21.83;71.52;95506.38;4875803;29;20049;-78
2022/06/20 02:38:33;;;;;;;19.63;10.20;;;;;;;21.85;70.65;95498.44;4877409;29;20060;-78
2022/06/20 02:41:00;;;;;;;18.60;10.77;;;;;;;21.81;70.85;95500.44;4875670;29;20525;-78
2022/06/20 02:43:35;;;;;;;17.10;10.30;;;;;;;21.79;70.79;95508.41;4875274;29;20049;-78
2022/06/20 02:46:05;;;;;;;16.02;9.68;;;;;;;21.83;71.21;95509.16;4875369;29;20117;-78
2022/06/20 02:48:33;;;;;;;15.63;10.00;;;;;;;21.84;71.76;95514.28;4875525;29;20057;-77
2022/06/20 02:51:06;;;;;;;13.82;9.00;;;;;;;21.79;71.32;95519.50;4877900;29;20057;-78
2022/06/20 02:53:36;;;;;;;;;;;;;;;21.79;71.00;95509.19;4879284;29;20105;-78
2022/06/20 02:56:04;;;;;;;16.63;10.45;;;;;;;21.78;71.05;95524.25;4878389;29;19930;-77
2022/06/20 02:58:33;;;;;;;15.25;9.80;;;;;;;21.76;71.08;95521.09;4878954;29;20050;-78
2022/06/20 03:01:03;;;;;;;14.75;9.73;;;;;;;21.76;71.08;95518.31;4878853;29;20080;-77
2022/06/20 03:03:35;;;;;;;17.02;10.35;;;;;;;21.68;70.34;95507.72;4878647;29;20052;-81
2022/06/20 03:06:03;;;;;;;17.13;9.45;;;;;;;21.72;70.94;95512.03;4878408;29;20065;-77
2022/06/20 03:08:30;;;;;;;20.48;9.95;;;;;;;21.73;71.50;95504.50;4880389;29;20084;-78
2022/06/20 03:11:02;;;;;;;18.10;10.50;;;;;;;21.74;71.53;95500.53;4878905;29;20053;-78
2022/06/20 03:13:29;;;;;;;14.88;10.02;;;;;;;21.72;71.64;95508.47;4878546;29;20045;-77
2022/06/20 03:15:56;;;;;;;16.73;10.05;;;;;;;21.73;71.41;95501.75;4878829;29;20056;-78
2022/06/20 03:18:24;;;;;;;15.48;9.32;;;;;;;21.73;71.37;95505.28;4877982;29;20520;-77
2022/06/20 03:20:52;;;;;;;18.63;10.27;;;;;;;21.71;71.50;95506.88;4878524;29;20049;-78
2022/06/20 03:23:23;;;;;;;19.38;10.80;;;;;;;21.74;71.50;95500.53;4878009;29;20519;-77
2022/06/20 03:25:51;;;;;;;18.67;10.95;;;;;;;21.69;71.66;95507.31;4878305;29;20060;-77
2022/06/20 03:28:20;;;;;;;17.77;10.00;;;;;;;21.72;71.38;95508.47;4877841;29;20501;-78
2022/06/20 03:30:47;;;;;;;16.55;9.98;;;;;;;21.71;71.28;95502.13;4878449;29;20049;-77
2022/06/20 03:33:16;;;;;;;15.82;10.15;;;;;;;21.70;71.09;95506.09;4878025;29;20049;-78
2022/06/20 03:35:45;;;;;;;14.02;9.25;;;;;;;21.68;71.06;95516.03;4878071;29;20052;-78
2022/06/20 03:38:15;;;;;;;18.52;9.90;;;;;;;21.66;70.78;95515.66;4879303;29;20045;-78
2022/06/20 03:40:43;;;;;;;17.55;9.75;;;;;;;21.61;70.13;95514.91;4878299;29;20049;-77
2022/06/20 03:43:12;;;;;;;17.17;10.05;;;;;;;21.66;70.48;95515.66;4877859;29;20412;-77
2022/06/20 03:45:42;;;;;;;15.48;9.57;;;;;;;21.69;70.32;95518.38;4877944;29;20104;-78
2022/06/20 03:48:12;;;;;;;22.38;10.15;;;;;;;21.67;70.61;95517.25;4877626;29;20049;-77
2022/06/20 03:50:42;;;;;;;20.08;10.68;;;;;;;21.61;69.62;95520.44;4878166;29;20045;-78
2022/06/20 03:53:13;;;;;;;16.45;9.70;;;;;;;21.72;69.80;95514.03;4870944;29;20105;-78
2022/06/20 03:55:48;;;;;;;20.58;9.85;;;;;;;21.65;69.64;95514.06;4877976;29;20049;-78
2022/06/20 03:58:20;;;;;;;17.58;9.40;;;;;;;21.70;69.70;95510.88;4877526;29;20056;-78
2022/06/20 04:00:53;;;;;;;20.92;9.70;;;;;;;21.73;69.42;95518.38;4878021;29;20063;-77
2022/06/20 04:03:23;;;;;;;;;;;;;;;21.73;68.74;95521.91;4877285;29;20057;-78
2022/06/20 04:05:53;;;;;;;24.42;11.07;;;;;;;21.57;68.22;95524.44;4877779;29;19928;-78
2022/06/20 04:10:57;;;;;;;17.05;9.95;;;;;;;21.73;68.36;95529.44;4878912;29;20048;-77
2022/06/20 04:11:15;;;;;;;18.75;9.93;;;;;;;21.73;68.63;95532.22;4877076;29;20049;-78
2022/06/20 04:13:54;;;;;;;20.35;9.95;;;;;;;21.76;69.27;95531.38;4877835;29;20056;-78
2022/06/20 04:16:26;;;;;;;18.55;9.55;;;;;;;21.81;69.62;95540.03;4877171;29;20053;-77
2022/06/20 04:19:01;;;;;;;20.92;10.40;;;;;;;21.84;69.12;95544.00;4877332;29;20057;-77
2022/06/20 04:21:42;;;;;;;18.85;10.05;;;;;;;21.87;68.66;95543.16;4877317;29;20068;-78
2022/06/20 04:24:16;;;;;;;17.70;9.65;;;;;;;21.86;67.12;95544.34;4877034;29;20049;-77
2022/06/20 04:26:51;;;;;;;23.17;10.07;;;;;;;21.91;66.41;95546.69;4877219;29;20045;-78
2022/06/20 04:29:23;;;;;;;18.70;10.05;;;;;;;21.93;64.99;95551.81;4876745;29;20128;-78
2022/06/20 04:31:58;;;;;;;18.20;10.10;;;;;;;21.96;65.13;95546.22;4877178;29;20730;-77
2022/06/20 04:34:31;;;;;;;14.70;8.68;;;;;;;22.09;65.00;95547.28;4876730;29;20049;-77
2022/06/20 04:37:00;;;;;;;;;;;;;;;22.09;64.83;95550.06;4877674;29;20117;-78
2022/06/20 04:39:31;;;;;;;18.13;9.80;;;;;;;22.19;64.53;95550.41;4878615;29;19923;-78
2022/06/20 04:42:03;;;;;;;17.17;8.80;;;;;;;22.26;64.50;95547.53;4877274;29;20049;-78
2022/06/20 04:44:38;;;;;;;16.87;8.53;;;;;;;22.29;63.62;95546.69;4877006;29;20053;-78
2022/06/20 04:47:20;;;;;;;20.92;9.63;;;;;;;22.22;64.41;95552.34;4876795;29;20049;-77
2022/06/20 04:49:46;;;;;;;23.80;9.98;;;;;;;22.26;64.54;95553.09;4877046;29;20088;-77
2022/06/20 04:52:16;;;;;;;20.33;9.75;;;;;;;22.37;64.28;95557.31;4876470;29;20049;-77
2022/06/20 04:54:43;;;;;;;17.45;9.55;;;;;;;22.50;64.29;95563.13;4876852;29;20045;-78
2022/06/20 04:57:14;;;;;;;17.45;8.95;;;;;;;22.62;64.51;95570.88;4876417;29;20450;-77
2022/06/20 04:59:42;;;;;;;17.67;8.50;;;;;;;22.77;63.12;95560.38;4876833;29;20073;-78
2022/06/20 05:02:16;;;;;;;25.33;8.32;;;;;;;22.89;60.70;95561.84;4876287;29;20521;-78
2022/06/20 05:04:46;;;;;;;21.42;8.30;;;;;;;23.00;59.12;95565.25;4876726;29;20051;-78
2022/06/20 05:07:17;;;;;;;16.00;8.02;;;;;;;23.09;60.30;95565.53;4876266;29;20057;-78
2022/06/20 05:09:50;;;;;;;21.15;8.65;;;;;;;23.22;59.35;95581.59;4878321;29;20061;-78
2022/06/20 05:12:24;;;;;;;22.75;9.10;;;;;;;23.18;59.50;95579.69;4876092;29;20045;-77
2022/06/20 05:14:55;;;;;;;17.48;8.65;;;;;;;23.26;58.72;95580.34;4875931;29;20424;-78
2022/06/20 05:17:25;;;;;;;20.30;8.70;;;;;;;23.26;58.53;95568.47;4876024;29;20131;-78
2022/06/20 05:19:57;;;;;;;18.08;8.30;;;;;;;23.22;59.10;95568.50;4876409;29;20536;-79
2022/06/20 05:22:27;;;;;;;20.77;8.80;;;;;;;23.32;58.34;95583.44;4876182;29;20052;-78
2022/06/20 05:24:56;;;;;;;21.88;8.75;;;;;;;23.38;59.13;95582.53;4876265;29;20527;-80
2022/06/20 05:27:28;;;;;;;19.40;8.70;;;;;;;23.41;60.73;95592.03;4875851;29;20052;-78
2022/06/20 05:29:58;;;;;;;20.52;9.18;;;;;;;23.40;59.04;95590.47;4876537;29;20428;-78
2022/06/20 05:32:33;;;;;;;21.92;8.95;;;;;;;23.39;57.85;95600.81;4875847;29;20049;-78
2022/06/20 05:35:06;;;;;;;16.38;7.70;;;;;;;23.34;59.34;95606.06;4876508;29;20523;-78
2022/06/20 05:37:42;;;;;;;23.30;9.07;;;;;;;23.32;59.48;95605.66;4876174;29;20056;-78
2022/06/20 05:40:15;;;;;;;17.33;8.45;;;;;;;23.43;59.61;95598.75;4877504;29;20056;-78
2022/06/20 05:42:43;;;;;;;20.48;9.15;;;;;;;23.43;59.23;95611.84;4876253;29;20497;-78
2022/06/20 05:45:15;;;;;;;24.48;8.55;;;;;;;23.37;58.91;95599.66;4875799;29;20078;-78
2022/06/20 05:47:44;;;;;;;18.13;8.48;;;;;;;23.28;57.60;95605.72;4876152;29;20097;-78
2022/06/20 05:50:26;;;;;;;21.67;7.80;;;;;;;23.34;56.89;95612.41;4875601;29;20049;-78
2022/06/20 05:52:55;;;;;;;19.42;8.10;;;;;;;23.45;57.42;95623.34;4876392;29;20053;-79
2022/06/20 05:55:27;;;;;;;42.72;9.20;;;;;;;23.56;57.22;95637.88;4875518;29;20501;-78
2022/06/20 05:57:57;;;;;;;22.10;7.85;;;;;;;23.69;56.37;95641.66;4876212;29;20060;-78
2022/06/20 06:00:27;;;;;;;18.95;8.07;;;;;;;23.68;57.31;95640.09;4875522;29;20131;-78
2022/06/20 06:02:59;;;;;;;17.13;8.05;;;;;;;23.76;57.42;95656.66;4876276;29;20049;-78
2022/06/20 06:05:31;;;;;;;20.17;7.95;;;;;;;23.76;56.21;95657.44;4875747;29;20068;-78
2022/06/20 06:08:00;;;;;;;;;;;;;;;23.76;56.92;95668.56;4876888;29;20057;-78
2022/06/20 06:10:34;;;;;;;22.23;8.48;;;;;;;23.65;57.12;95665.97;4876314;29;20372;-78
2022/06/20 06:13:13;;;;;;;20.48;8.10;;;;;;;23.58;58.16;95677.13;4876074;29;20432;-78
2022/06/20 06:16:46;;;;;;;21.35;8.88;;;;;;;23.63;55.98;95676.69;4875846;29;20423;-78
2022/06/20 06:18:32;;;;;;;17.73;7.57;;;;;;;23.61;56.93;95676.31;4875326;29;20048;-78
2022/06/20 06:20:58;;;;;;;18.27;8.15;;;;;;;23.59;59.44;95681.47;4877352;29;20052;-78
2022/06/20 06:23:25;;;;;;;20.13;8.15;;;;;;;23.60;58.86;95687.84;4875862;29;20052;-78
2022/06/20 06:25:51;;;;;;;15.63;7.70;;;;;;;23.58;58.14;95685.47;4877969;29;20061;-78
2022/06/20 06:28:22;;;;;;;20.17;7.90;;;;;;;23.62;57.89;95688.97;4879170;29;20056;-78
2022/06/20 06:30:54;;;;;;;17.33;7.53;;;;;;;23.75;57.96;95686.44;4879678;29;20058;-80
2022/06/20 06:35:54;;;;;;;18.00;7.53;;;;;;;23.73;56.65;95713.09;5088167;23;20044;-84
2022/06/20 06:38:29;;;;;;;13.68;7.65;;;;;;;23.74;56.94;95720.22;4939206;28;20232;-86
2022/06/20 06:40:56;;;;;;;16.77;6.97;;;;;;;23.88;57.77;95720.03;4939486;28;20067;-86
2022/06/20 06:48:51;;;;;;;17.85;7.63;;;;;;;23.94;56.24;95729.47;4921227;29;20048;-86
2022/06/20 06:51:25;;;;;;;18.45;7.50;;;;;;;23.75;55.87;95733.69;5010585;23;20048;-86
2022/06/20 06:53:58;;;;;;;20.73;8.18;;;;;;;23.63;56.73;95740.63;4924489;29;20048;-85
2022/06/20 06:56:32;;;;;;;15.93;8.07;;;;;;;23.62;56.92;95739.00;4939687;29;20036;-85
2022/06/20 06:59:05;;;;;;;17.70;8.15;;;;;;;23.66;56.38;95742.56;5060030;23;20038;-85
2022/06/20 07:01:38;;;;;;;18.75;9.30;;;;;;;23.68;56.73;95751.25;4939522;29;20058;-85
2022/06/20 07:04:16;;;;;;;18.40;8.20;;;;;;;23.53;57.27;95762.97;4939469;29;20056;-82
2022/06/20 07:19:58;;;;;;;17.65;8.00;;;;;;;23.99;57.29;95787.38;5572610;23;20044;-85
2022/06/20 07:33:45;;;;;;;13.38;7.45;;;;;;;24.49;54.36;95786.66;5161621;23;20040;-82
2022/06/20 07:36:17;;;;;;;23.42;7.78;;;;;;;24.60;53.52;95784.47;4923845;29;20100;-83
2022/06/20 07:38:49;;;;;;;17.52;8.00;;;;;;;24.77;54.51;95773.47;4940916;28;20040;-81
2022/06/20 07:41:21;;;;;;;14.57;7.05;;;;;;;24.96;54.49;95781.06;4923735;28;20054;-83
2022/06/20 07:43:56;;;;;;;18.10;7.10;;;;;;;25.24;55.81;95786.13;4941673;28;20059;-85
2022/06/20 07:49:48;;;;;;;17.42;7.43;;;;;;;25.34;53.87;95789.13;4900038;29;20068;-82
2022/06/20 07:52:25;;;;;;;20.38;7.22;;;;;;;25.24;53.55;95786.13;4939858;28;20068;-84
2022/06/20 07:54:56;;;;;;;20.83;6.13;;;;;;;25.24;53.02;95786.13;4924934;29;20060;-83
2022/06/20 07:57:28;;;;;;;12.93;6.25;;;;;;;25.17;51.34;95794.63;4939207;28;20036;-84
2022/06/20 08:00:03;;;;;;;13.88;5.88;;;;;;;25.15;51.37;95804.63;4939695;29;20043;-82
2022/06/20 08:02:35;;;;;;;14.88;6.10;;;;;;;25.16;50.99;95804.22;4938742;29;20036;-83
2022/06/20 08:05:06;;;;;;;13.75;5.90;;;;;;;25.27;49.59;95803.19;4924894;28;20048;-80
2022/06/20 08:07:40;;;;;;;13.77;5.78;;;;;;;25.38;50.11;95806.59;4941892;28;20044;-84
2022/06/20 08:10:14;;;;;;;12.20;5.57;;;;;;;25.34;50.91;95811.44;4939553;28;20055;-83
2022/06/20 08:15:38;;;;;;;14.00;6.45;;;;;;;25.51;53.08;95822.22;4943235;28;20091;-83
2022/06/20 09:53:40;;;;;;;13.98;5.65;;;;;;;28.06;47.73;95835.19;5675197;23;20085;-79
2022/06/20 10:01:25;;;;;;;8.80;5.25;;;;;;;28.49;43.05;95824.72;5552829;23;20074;-86
2022/06/20 10:03:57;;;;;;;9.82;5.43;;;;;;;28.41;42.23;95826.97;4921570;29;20059;-87
2022/06/20 10:06:36;;;;;;;22.58;6.47;;;;;;;28.37;45.83;95825.50;4921218;29;20048;-87
2022/06/20 10:14:22;;;;;;;17.27;6.45;;;;;;;28.07;44.50;95827.56;5395770;23;20078;-82
2022/06/20 10:16:56;;;;;;;15.93;5.55;;;;;;;27.90;42.88;95826.09;5173694;23;20052;-83
2022/06/20 10:19:29;;;;;;;10.38;5.60;;;;;;;27.69;43.79;95822.66;4918251;29;20057;-83
2022/06/20 10:24:47;;;;;;;12.60;6.47;;;;;;;27.26;44.69;95823.84;5782072;23;19930;-81
2022/06/20 10:27:32;;;;;;;13.18;5.78;;;;;;;27.14;45.77;95821.75;4938620;29;20139;-81
2022/06/20 10:30:10;;;;;;;15.50;5.00;;;;;;;27.08;42.71;95826.31;4943372;29;20059;-81
2022/06/20 10:43:06;;;;;;;9.85;4.03;;;;;;;27.47;42.22;95818.91;5807586;23;20499;-81
2022/06/20 10:48:33;;;;;;;12.52;4.57;;;;;;;27.90;45.42;95809.31;5445765;23;20048;-80
2022/06/20 10:51:03;;;;;;;8.40;4.30;;;;;;;28.08;42.31;95809.53;4907789;29;20135;-82
2022/06/20 10:53:39;;;;;;;10.13;4.40;;;;;;;28.01;43.89;95806.97;4913844;29;20616;-82
2022/06/20 10:56:14;;;;;;;12.50;4.70;;;;;;;27.89;41.27;95813.34;4908511;29;20128;-82
2022/06/20 10:58:58;;;;;;;9.88;4.35;;;;;;;27.85;42.06;95812.66;4916155;29;20045;-81
2022/06/20 11:01:36;;;;;;;13.15;4.32;;;;;;;28.04;40.66;95808.88;4913188;29;20044;-81
2022/06/20 11:06:56;;;;;;;10.40;4.57;;;;;;;27.88;42.61;95797.75;5613672;23;20400;-81
2022/06/20 11:12:06;;;;;;;13.55;4.65;;;;;;;28.24;40.43;95809.47;5313894;23;20049;-82
2022/06/20 11:14:44;;;;;;;13.65;4.30;;;;;;;28.29;40.99;95799.69;4906872;29;20053;-81
2022/06/20 11:17:21;;;;;;;9.00;4.00;;;;;;;28.32;40.57;95796.78;4901535;29;20053;-87
2022/06/20 11:19:56;;;;;;;12.10;4.60;;;;;;;28.49;41.75;95793.91;4901610;29;20052;-87
2022/06/20 11:22:35;;;;;;;12.07;4.72;;;;;;;28.46;39.56;95794.81;4900345;29;20187;-87
2022/06/20 11:25:21;;;;;;;12.55;4.43;;;;;;;28.56;42.25;95788.09;4893684;29;20059;-86
2022/06/20 11:28:12;;;;;;;11.88;4.88;;;;;;;28.79;40.91;95793.31;4900393;29;20535;-88
2022/06/20 11:30:46;;;;;;;12.75;4.18;;;;;;;28.92;40.91;95792.50;4899243;29;20048;-85
2022/06/20 11:34:00;;;;;;;14.35;4.32;;;;;;;28.76;43.38;95783.00;4899536;29;20057;-87
2022/06/20 11:36:14;;;;;;;10.65;4.45;;;;;;;28.67;39.50;95788.53;4900503;29;20049;-86
2022/06/20 11:39:03;;;;;;;8.93;4.68;;;;;;;28.74;39.98;95782.66;4902739;29;20489;-84
2022/06/20 11:41:36;;;;;;;7.88;3.90;;;;;;;28.67;41.98;95788.53;4903476;29;20544;-85
2022/06/20 11:44:17;;;;;;;13.52;4.30;;;;;;;28.73;41.73;95789.50;4895755;29;20509;-87
2022/06/20 11:47:07;;;;;;;8.48;3.47;;;;;;;28.90;41.94;95784.53;4901378;29;20051;-87
2022/06/20 11:49:50;;;;;;;10.00;4.00;;;;;;;28.72;38.64;95799.16;4897987;29;20545;-86
2022/06/20 11:52:19;;;;;;;;;;;;;;;28.77;42.07;95798.59;4881783;29;20107;-88
2022/06/20 11:54:57;;;;;;;13.85;4.78;;;;;;;28.67;38.33;95788.53;4899832;29;19923;-87
2022/06/20 11:57:31;;;;;;;20.80;4.53;;;;;;;28.93;36.78;95791.28;4901535;29;20148;-87
2022/06/20 12:00:03;;;;;;;15.23;4.25;;;;;;;28.87;36.88;95785.47;4900090;29;20056;-88
2022/06/20 12:02:49;;;;;;;10.85;3.75;;;;;;;28.98;36.97;95788.72;4907356;29;20044;-80
2022/06/20 12:05:45;;;;;;;9.85;3.53;;;;;;;28.97;37.94;95772.31;4911574;29;20051;-86
2022/06/20 12:08:29;;;;;;;10.50;4.15;;;;;;;29.02;39.44;95774.56;4876694;29;20052;-87
2022/06/20 12:17:06;;;;;;;10.30;4.30;;;;;;;28.96;36.60;95771.53;5372578;23;20515;-85
2022/06/20 12:25:34;;;;;;;8.07;4.35;;;;;;;28.94;39.90;95762.03;4899304;29;20476;-87
2022/06/20 12:33:49;;;;;;;15.70;4.55;;;;;;;29.22;37.86;95761.03;5862027;23;20051;-81
2022/06/20 12:36:24;;;;;;;11.82;4.28;;;;;;;29.26;37.73;95772.91;4911563;29;20052;-85
2022/06/20 12:38:58;;;;;;;7.43;3.90;;;;;;;29.14;36.88;95764.56;4905893;29;20056;-85
2022/06/20 12:41:30;;;;;;;8.38;4.07;;;;;;;29.20;36.53;95752.28;4893122;29;20037;-87
2022/06/20 12:44:07;;;;;;;9.63;4.40;;;;;;;29.30;36.88;95756.75;4880920;29;20056;-87
2022/06/20 12:46:46;;;;;;;12.38;4.20;;;;;;;29.20;36.86;95757.91;4896729;29;20052;-85
2022/06/20 12:49:37;;;;;;;11.75;4.40;;;;;;;29.15;36.91;95750.06;4897588;29;20048;-86
2022/06/20 12:52:12;;;;;;;7.03;4.07;;;;;;;28.96;37.37;95748.34;4891365;29;20048;-85
2022/06/20 12:55:07;;;;;;;7.93;4.25;;;;;;;29.15;39.23;95750.06;4898532;29;20052;-86
2022/06/20 12:57:53;;;;;;;11.85;4.25;;;;;;;29.15;41.63;95738.88;4898543;29;20556;-88
2022/06/20 13:00:32;;;;;;;7.57;4.05;;;;;;;29.24;37.68;95740.97;4897244;29;20713;-87
2022/06/20 13:03:27;;;;;;;8.48;3.95;;;;;;;29.19;38.09;95745.13;4897878;29;20500;-87
2022/06/20 13:06:07;;;;;;;8.77;3.80;;;;;;;29.31;38.15;95735.88;4897844;29;20187;-88
2022/06/20 13:08:58;;;;;;;9.23;4.30;;;;;;;29.17;38.25;95736.38;4898339;29;20465;-87
2022/06/20 13:11:34;;;;;;;7.47;4.40;;;;;;;29.21;39.19;95734.22;4897740;29;20056;-86
2022/06/20 13:14:39;;;;;;;8.45;4.03;;;;;;;29.17;37.88;95730.75;4898115;29;20049;-86
2022/06/20 13:17:23;;;;;;;8.75;4.20;;;;;;;29.04;38.04;95727.25;4897890;29;20048;-84
2022/06/20 13:20:22;;;;;;;6.45;4.22;;;;;;;29.23;39.79;95722.56;4898027;29;20083;-84
2022/06/20 13:23:01;;;;;;;8.70;4.20;;;;;;;29.12;37.90;95725.75;4896447;29;20041;-85
2022/06/20 13:25:36;;;;;;;17.10;4.30;;;;;;;28.80;37.54;95719.22;4901271;29;20044;-82
2022/06/20 13:28:13;;;;;;;12.02;4.53;;;;;;;28.94;36.35;95717.19;4895573;29;20052;-84
2022/06/20 13:30:53;;;;;;;9.90;4.30;;;;;;;28.90;38.46;95708.09;4902620;29;20408;-87
2022/06/20 13:33:30;;;;;;;11.93;4.30;;;;;;;28.92;38.65;95709.22;4898689;29;20044;-88
2022/06/20 13:36:02;;;;;;;7.90;4.22;;;;;;;28.58;38.31;95701.59;4890138;29;20049;-85
2022/06/20 13:38:41;;;;;;;11.55;4.65;;;;;;;28.72;39.97;95697.53;4899102;29;20048;-86
2022/06/20 13:41:15;;;;;;;13.38;4.45;;;;;;;28.69;37.12;95692.81;4899421;29;20128;-85
2022/06/20 13:43:52;;;;;;;7.45;4.60;;;;;;;28.70;39.61;95694.38;4902846;29;20658;-85
2022/06/20 13:46:25;;;;;;;7.93;3.90;;;;;;;28.68;38.35;95694.06;4910041;29;20496;-84
2022/06/20 13:49:02;;;;;;;8.95;3.90;;;;;;;28.69;37.47;95685.19;4888585;29;20053;-86
2022/06/20 13:51:35;;;;;;;10.18;4.40;;;;;;;28.67;37.78;95687.66;4914856;29;20071;-82
2022/06/20 13:54:13;;;;;;;10.73;5.13;;;;;;;28.52;39.96;95686.59;4908613;29;20064;-86
2022/06/20 13:56:53;;;;;;;10.05;4.43;;;;;;;28.39;40.63;95671.81;4906059;29;20053;-88
2022/06/20 13:59:26;;;;;;;9.45;4.47;;;;;;;28.33;40.34;95675.19;4905222;29;20060;-86
2022/06/20 14:01:59;;;;;;;10.23;4.35;;;;;;;28.42;41.88;95679.34;4892837;29;20052;-89
2022/06/20 14:04:28;;;;;;;11.82;4.45;;;;;;;28.45;41.48;95670.00;4902694;29;20048;-81
2022/06/20 14:06:58;;;;;;;19.92;5.68;;;;;;;28.66;41.14;95674.91;4909459;29;20045;-87
2022/06/20 14:09:30;;;;;;;14.82;5.60;;;;;;;28.56;40.17;95656.44;4910047;29;20408;-81
2022/06/20 14:12:00;;;;;;;21.33;5.83;;;;;;;28.53;40.91;95655.31;5159997;23;20062;-84
2022/06/20 14:14:31;;;;;;;10.57;4.20;;;;;;;28.36;39.24;95650.34;4936196;29;20547;-83
2022/06/20 14:17:01;;;;;;;11.00;4.68;;;;;;;28.35;40.02;95632.75;5028297;23;20055;-86
2022/06/20 14:19:32;;;;;;;8.32;4.45;;;;;;;28.48;42.25;95629.91;4901791;29;20508;-87
2022/06/20 14:22:02;;;;;;;9.82;4.57;;;;;;;28.67;40.94;95631.66;4900550;29;20073;-87
2022/06/20 14:24:33;;;;;;;8.63;4.63;;;;;;;28.97;41.92;95627.38;4900472;29;20420;-87
2022/06/20 14:27:06;;;;;;;8.30;4.32;;;;;;;29.02;38.43;95621.16;4899287;29;20063;-87
2022/06/20 14:29:36;;;;;;;9.77;4.60;;;;;;;29.06;39.94;95623.84;4894096;29;20076;-87
2022/06/20 14:32:15;;;;;;;9.25;4.25;;;;;;;29.18;38.20;95631.41;4897486;29;20050;-86
2022/06/20 14:37:41;;;;;;;7.75;4.65;;;;;;;29.04;39.38;95638.34;4901995;29;20056;-86
2022/06/20 14:40:17;;;;;;;8.50;4.53;;;;;;;29.00;38.45;95648.88;4904510;29;20052;-85
2022/06/20 14:42:53;;;;;;;10.73;4.40;;;;;;;28.94;40.37;95677.97;4902876;29;20079;-88
2022/06/20 14:45:27;;;;;;;41.33;5.18;;;;;;;28.69;41.89;95707.59;4896815;29;20048;-89
2022/06/20 14:48:03;;;;;;;14.80;3.50;;;;;;;27.50;45.28;95723.69;4906986;29;20063;-81
2022/06/20 15:01:00;;;;;;;9.10;2.50;;;;;;;24.72;51.52;95797.00;5255513;23;20053;-86
2022/06/20 15:03:37;;;;;;;9.07;2.45;;;;;;;24.29;52.19;95810.81;5019653;23;20028;-87
2022/06/20 15:06:12;;;;;;;6.93;2.22;;;;;;;24.30;51.60;95835.41;4918140;29;20029;-85
2022/06/20 15:11:22;;;;;;;6.20;2.60;;;;;;;23.78;53.53;95834.94;5916356;23;21008;-83
2022/06/20 15:13:56;;;;;;;7.13;2.60;;;;;;;23.62;56.23;95841.84;4920353;29;20116;-87
2022/06/20 15:16:30;;;;;;;8.98;3.42;;;;;;;23.32;60.40;95816.78;5147256;23;20085;-85